createdAt,value
2017-08-27T00:03:24.960Z,15.90
2017-08-27T00:08:26.797Z,16.13
2017-08-27T00:13:28.440Z,15.90
2017-08-27T00:18:30.100Z,16.00
2017-08-27T00:23:31.997Z,15.60
2017-08-27T00:28:33.652Z,16.73
2017-08-27T00:33:35.337Z,17.30
2017-08-27T00:38:37.141Z,16.73
2017-08-27T00:43:38.915Z,16.83
2017-08-27T00:48:40.713Z,16.10
2017-08-27T00:53:42.363Z,15.40
2017-08-27T00:58:44.035Z,16.47
2017-08-27T01:03:45.914Z,17.80
2017-08-27T01:08:48.405Z,15.70
2017-08-27T01:13:50.048Z,18.00
2017-08-27T01:18:51.801Z,16.40
2017-08-27T01:23:53.701Z,17.33
2017-08-27T01:28:56.025Z,17.40
2017-08-27T01:33:57.636Z,17.23
2017-08-27T01:38:59.363Z,18.13
2017-08-27T01:44:01.034Z,17.80
2017-08-27T01:49:02.707Z,16.70
2017-08-27T01:54:05.477Z,16.93
2017-08-27T01:59:07.300Z,17.67
2017-08-27T02:04:08.955Z,17.00
2017-08-27T02:09:11.155Z,18.27
2017-08-27T02:14:12.758Z,18.77
2017-08-27T02:19:14.586Z,18.27
2017-08-27T02:24:16.335Z,17.50
2017-08-27T02:29:18.034Z,19.13
2017-08-27T02:34:22.425Z,19.50
2017-08-27T02:39:39.032Z,19.13
2017-08-27T02:44:55.411Z,19.20
2017-08-27T02:50:12.484Z,19.57
2017-08-27T02:55:29.014Z,19.73
2017-08-27T03:00:45.453Z,20.10
2017-08-27T03:06:02.171Z,20.40
2017-08-27T03:11:18.697Z,20.43
2017-08-27T03:16:21.535Z,23.27
2017-08-27T03:21:34.733Z,20.83
2017-08-27T03:26:36.552Z,21.20
2017-08-27T03:31:38.197Z,21.83
2017-08-27T03:36:40.201Z,24.00
2017-08-27T03:41:41.979Z,22.73
2017-08-27T03:46:43.649Z,22.53
2017-08-27T03:51:45.997Z,24.40
2017-08-27T03:56:48.736Z,26.23
2017-08-27T04:01:50.332Z,22.27
2017-08-27T04:06:52.082Z,23.70
2017-08-27T04:11:53.696Z,22.10
2017-08-27T04:16:55.323Z,23.10
2017-08-27T04:21:56.996Z,23.20
2017-08-27T04:26:59.772Z,21.63
2017-08-27T04:32:01.467Z,23.27
2017-08-27T04:37:03.316Z,21.80
2017-08-27T04:42:05.120Z,27.50
2017-08-27T04:47:06.770Z,25.67
2017-08-27T04:52:08.542Z,24.50
2017-08-27T04:57:10.189Z,25.60
2017-08-27T05:02:12.834Z,24.87
2017-08-27T05:07:14.564Z,24.80
2017-08-27T05:12:16.253Z,24.53
2017-08-27T05:17:18.057Z,27.23
2017-08-27T05:22:20.726Z,24.93
2017-08-27T05:27:23.192Z,24.37
2017-08-27T05:32:25.477Z,27.67
2017-08-27T05:37:27.488Z,21.80
2017-08-27T05:42:29.132Z,26.27
2017-08-27T05:47:30.859Z,25.80
2017-08-27T05:52:32.842Z,25.90
2017-08-27T05:57:34.509Z,24.67
2017-08-27T06:02:40.150Z,27.23
2017-08-27T06:07:42.873Z,25.53
2017-08-27T06:12:44.525Z,28.00
2017-08-27T06:17:46.299Z,28.93
2017-08-27T06:22:48.602Z,26.40
2017-08-27T06:27:50.587Z,28.70
2017-08-27T06:32:53.284Z,28.93
2017-08-27T06:37:54.925Z,32.10
2017-08-27T06:42:56.732Z,31.70
2017-08-27T06:47:58.387Z,35.37
2017-08-27T06:53:00.180Z,31.43
2017-08-27T06:58:01.825Z,34.80
2017-08-27T07:03:03.525Z,33.13
2017-08-27T07:08:05.300Z,37.23
2017-08-27T07:13:06.971Z,36.87
2017-08-27T07:18:08.645Z,34.97
2017-08-27T07:23:10.285Z,36.97
2017-08-27T07:28:12.041Z,36.30
2017-08-27T07:33:13.705Z,39.33
2017-08-27T07:38:15.437Z,33.60
2017-08-27T07:43:18.108Z,35.17
2017-08-27T07:48:19.809Z,37.43
2017-08-27T07:53:21.458Z,35.67
2017-08-27T07:58:25.177Z,36.87
2017-08-27T08:03:27.943Z,35.47
2017-08-27T08:08:29.618Z,36.10
2017-08-27T08:13:32.182Z,35.40
2017-08-27T08:18:34.861Z,35.67
2017-08-27T08:23:37.257Z,34.90
2017-08-27T08:28:38.869Z,34.40
2017-08-27T08:33:40.671Z,34.50
2017-08-27T08:38:42.413Z,31.40
2017-08-27T08:43:44.145Z,31.33
2017-08-27T08:48:45.864Z,30.07
2017-08-27T08:53:52.587Z,30.83
2017-08-27T09:08:25.832Z,29.10
2017-08-27T09:13:27.609Z,27.50
2017-08-27T09:18:29.279Z,28.47
2017-08-27T09:23:30.981Z,24.70
2017-08-27T09:28:32.612Z,22.50
2017-08-27T09:33:34.297Z,20.43
2017-08-27T09:38:35.957Z,27.63
2017-08-27T09:43:37.664Z,19.83
2017-08-27T10:45:37.509Z,12.00
2017-08-27T10:50:39.263Z,13.00
2017-08-27T10:55:40.986Z,11.80
2017-08-27T11:00:42.735Z,13.77
2017-08-27T11:05:44.510Z,13.93
2017-08-27T11:10:46.157Z,13.67
2017-08-27T11:15:47.949Z,15.00
2017-08-27T11:20:53.846Z,13.10
2017-08-27T11:25:55.607Z,14.60
2017-08-27T11:30:57.328Z,15.10
2017-08-27T11:35:59.042Z,17.00
2017-08-27T11:41:00.829Z,16.40
2017-08-27T11:46:02.460Z,14.47
2017-08-27T11:51:04.582Z,15.67
2017-08-27T11:56:06.608Z,14.47
2017-08-27T12:01:08.285Z,14.57
2017-08-27T12:06:10.064Z,16.13
2017-08-27T12:11:11.733Z,15.43
2017-08-27T12:16:13.493Z,15.87
2017-08-27T12:21:15.201Z,17.00
2017-08-27T12:26:18.334Z,15.27
2017-08-27T12:31:19.969Z,14.73
2017-08-27T12:36:22.333Z,17.13
2017-08-27T12:41:23.911Z,14.60
2017-08-27T12:46:25.613Z,14.37
2017-08-27T12:51:27.295Z,14.00
2017-08-27T12:56:28.933Z,14.00
2017-08-27T13:01:30.613Z,14.53
2017-08-27T13:06:33.304Z,13.43
2017-08-27T13:11:35.076Z,12.93
2017-08-27T13:16:36.856Z,15.03
2017-08-27T13:21:38.629Z,13.40
2017-08-27T13:26:40.332Z,13.27
2017-08-27T13:31:41.976Z,12.70
2017-08-27T13:36:43.757Z,12.13
2017-08-27T13:41:45.528Z,12.17
2017-08-27T13:46:47.336Z,12.47
2017-08-27T13:51:48.981Z,12.33
2017-08-27T13:56:50.776Z,13.80
2017-08-27T14:01:52.441Z,13.60
2017-08-27T14:06:54.094Z,13.60
2017-08-27T14:11:55.869Z,14.10
2017-08-27T14:16:57.603Z,14.33
2017-08-27T14:21:59.320Z,13.53
2017-08-27T14:27:01.076Z,15.20
2017-08-27T14:32:02.662Z,13.73
2017-08-27T14:37:04.438Z,13.83
2017-08-27T14:42:06.100Z,14.07
2017-08-27T14:47:07.773Z,13.63
2017-08-27T14:52:09.341Z,12.90
2017-08-27T14:57:11.016Z,14.23
2017-08-27T15:02:12.688Z,14.20
2017-08-27T15:07:14.272Z,15.33
2017-08-27T15:12:15.933Z,14.03
2017-08-27T15:17:17.666Z,14.07
2017-08-27T15:22:19.376Z,13.50
2017-08-27T15:27:21.096Z,12.83
2017-08-27T15:32:22.730Z,12.97
2017-08-27T15:37:24.422Z,13.87
2017-08-27T15:42:26.069Z,13.90
2017-08-27T15:47:27.754Z,14.17
2017-08-27T15:52:29.513Z,14.67
2017-08-27T15:57:31.180Z,14.03
2017-08-27T16:02:32.978Z,14.77
2017-08-27T16:07:34.650Z,14.80
2017-08-27T16:12:36.322Z,15.83
2017-08-27T16:17:38.122Z,15.07
2017-08-27T16:22:39.806Z,15.00
2017-08-27T16:27:41.477Z,13.73
2017-08-27T16:32:43.145Z,14.73
2017-08-27T16:37:44.919Z,14.30
2017-08-27T16:42:46.605Z,15.40
2017-08-27T16:47:48.276Z,15.73
2017-08-27T16:52:50.045Z,14.30
2017-08-27T16:57:52.717Z,15.10
2017-08-27T17:02:54.497Z,15.00
2017-08-27T17:07:56.166Z,14.57
2017-08-27T17:12:57.862Z,14.63
2017-08-27T17:17:59.633Z,15.40
2017-08-27T17:23:01.342Z,15.30
2017-08-27T17:28:02.992Z,14.60
2017-08-27T17:33:04.657Z,15.70
2017-08-27T17:38:06.338Z,16.17
2017-08-27T17:43:07.998Z,15.53
2017-08-27T17:48:09.668Z,14.87
2017-08-27T17:53:11.353Z,16.30
2017-08-27T17:58:13.012Z,15.83
2017-08-27T18:03:14.693Z,16.37
2017-08-27T18:08:16.372Z,16.70
2017-08-27T18:13:18.036Z,16.30
2017-08-27T18:18:19.730Z,17.80
2017-08-27T18:23:21.357Z,17.80
2017-08-27T18:28:23.105Z,17.60
2017-08-27T18:33:24.823Z,17.20
2017-08-27T18:38:26.565Z,18.33
2017-08-27T18:43:28.181Z,18.60
2017-08-27T18:48:29.815Z,18.90
2017-08-27T18:53:31.477Z,18.13
2017-08-27T18:58:33.158Z,19.00
2017-08-27T19:03:34.994Z,18.20
2017-08-27T19:08:36.737Z,19.70
2017-08-27T19:13:38.374Z,19.10
2017-08-27T19:18:40.207Z,19.00
2017-08-27T19:23:43.671Z,19.03
2017-08-27T19:28:45.357Z,19.50
2017-08-27T19:33:47.116Z,19.80
2017-08-27T19:38:48.849Z,19.60
2017-08-27T19:43:50.485Z,20.43
2017-08-27T19:48:52.244Z,20.10
2017-08-27T19:53:53.909Z,20.27
2017-08-27T19:58:55.710Z,20.33
2017-08-27T20:03:57.482Z,20.10
2017-08-27T20:08:59.336Z,21.13
2017-08-27T20:14:01.140Z,21.10
2017-08-27T20:19:02.783Z,20.43
2017-08-27T20:24:04.505Z,21.77
2017-08-27T20:29:06.143Z,21.47
2017-08-27T20:34:07.938Z,21.90
2017-08-27T20:39:09.710Z,21.57
2017-08-27T20:44:11.350Z,21.93
2017-08-27T20:49:13.950Z,21.70
2017-08-27T20:54:15.551Z,22.60
2017-08-27T20:59:18.214Z,22.00
2017-08-27T21:04:19.894Z,22.90
2017-08-27T21:09:21.509Z,23.40
2017-08-27T21:14:23.241Z,22.13
2017-08-27T21:19:24.856Z,21.87
2017-08-27T21:24:26.482Z,22.20
2017-08-27T21:29:28.148Z,23.63
2017-08-27T21:34:29.938Z,23.57
2017-08-27T21:39:31.618Z,23.70
2017-08-27T21:44:33.265Z,25.60
2017-08-27T21:49:34.832Z,25.30
2017-08-27T21:54:36.508Z,26.07
2017-08-27T21:59:38.181Z,26.77
2017-08-27T22:04:39.863Z,26.63
2017-08-27T22:09:41.535Z,26.30
2017-08-27T22:14:43.213Z,25.80
2017-08-27T22:19:44.880Z,26.17
2017-08-27T22:24:47.049Z,25.10
2017-08-27T22:29:48.737Z,25.77
2017-08-27T22:34:50.406Z,25.83
2017-08-27T22:39:52.181Z,25.83
2017-08-27T22:44:53.866Z,26.40
2017-08-27T22:49:55.642Z,26.70
2017-08-27T22:54:57.314Z,28.30
2017-08-27T22:59:59.124Z,26.77
2017-08-27T23:05:00.852Z,26.43
2017-08-27T23:10:03.549Z,26.43
2017-08-27T23:15:05.230Z,26.73
2017-08-27T23:20:06.894Z,26.50
2017-08-27T23:25:08.577Z,28.30
2017-08-27T23:30:10.381Z,30.00
2017-08-27T23:35:12.180Z,30.87
2017-08-27T23:40:14.714Z,31.33
2017-08-27T23:45:16.502Z,31.13
2017-08-27T23:50:18.222Z,32.43
2017-08-27T23:55:20.889Z,31.50
